createdAt,value
2022-11-27T00:02:26.031Z,3.63
2022-11-27T00:04:52.998Z,3.13
2022-11-27T00:07:19.799Z,3.10
2022-11-27T00:09:46.443Z,3.03
2022-11-27T00:12:13.485Z,3.13
2022-11-27T00:14:40.819Z,3.03
2022-11-27T00:17:07.669Z,3.10
2022-11-27T00:19:34.611Z,3.03
2022-11-27T00:22:01.304Z,3.87
2022-11-27T00:24:28.347Z,3.37
2022-11-27T00:26:55.093Z,4.03
2022-11-27T00:29:22.479Z,5.17
2022-11-27T00:31:49.168Z,4.10
2022-11-27T00:34:16.088Z,3.70
2022-11-27T00:36:46.553Z,3.90
2022-11-27T00:39:15.069Z,3.33
2022-11-27T00:41:41.753Z,4.47
2022-11-27T00:44:08.588Z,4.23
2022-11-27T00:46:36.089Z,4.53
2022-11-27T00:49:05.334Z,4.60
2022-11-27T00:51:32.619Z,4.93
2022-11-27T00:53:59.795Z,4.57
2022-11-27T00:56:29.128Z,5.73
2022-11-27T00:58:56.579Z,5.50
2022-11-27T01:01:28.909Z,5.30
2022-11-27T01:04:00.072Z,4.80
2022-11-27T01:06:28.051Z,4.40
2022-11-27T01:08:54.841Z,4.00
2022-11-27T01:11:27.650Z,3.93
2022-11-27T01:13:56.888Z,3.40
2022-11-27T01:16:26.597Z,3.37
2022-11-27T01:18:56.038Z,3.47
2022-11-27T01:21:23.608Z,2.90
2022-11-27T01:23:50.427Z,3.53
2022-11-27T01:26:18.427Z,3.07
2022-11-27T01:28:45.740Z,3.37
2022-11-27T01:31:19.269Z,2.97
2022-11-27T01:33:46.948Z,3.73
2022-11-27T01:36:15.839Z,3.73
2022-11-27T01:38:43.194Z,3.20
2022-11-27T01:41:33.387Z,3.67
2022-11-27T01:44:23.237Z,3.63
2022-11-27T01:47:00.345Z,3.07
2022-11-27T01:49:38.642Z,3.60
2022-11-27T01:52:13.535Z,3.73
2022-11-27T01:54:59.831Z,4.30
2022-11-27T01:57:36.437Z,3.20
2022-11-27T02:00:06.522Z,3.27
2022-11-27T02:02:39.460Z,3.10
2022-11-27T02:05:06.385Z,3.43
2022-11-27T02:07:33.264Z,3.50
2022-11-27T02:10:00.055Z,3.87
2022-11-27T02:13:08.078Z,3.90
2022-11-27T02:15:43.476Z,3.87
2022-11-27T02:18:31.459Z,3.33
2022-11-27T02:21:33.411Z,3.77
2022-11-27T02:24:17.881Z,3.50
2022-11-27T02:26:53.146Z,3.30
2022-11-27T02:29:23.898Z,3.30
2022-11-27T02:32:09.738Z,3.60
2022-11-27T02:34:45.757Z,3.33
2022-11-27T02:37:28.346Z,3.80
2022-11-27T02:40:17.577Z,3.77
2022-11-27T02:42:51.799Z,3.87
2022-11-27T02:45:25.300Z,3.40
2022-11-27T02:47:52.355Z,4.23
2022-11-27T02:50:25.388Z,3.67
2022-11-27T02:52:57.651Z,3.77
2022-11-27T02:55:27.320Z,4.30
2022-11-27T02:57:56.491Z,4.27
2022-11-27T03:00:23.800Z,3.70
2022-11-27T03:02:56.819Z,3.77
2022-11-27T03:05:28.198Z,4.33
2022-11-27T03:08:11.506Z,4.50
2022-11-27T03:11:06.620Z,4.03
2022-11-27T03:13:38.911Z,3.67
2022-11-27T03:16:16.522Z,3.80
2022-11-27T03:19:20.928Z,3.83
2022-11-27T03:21:57.256Z,3.60
2022-11-27T03:24:25.010Z,3.70
2022-11-27T03:26:52.297Z,4.43
2022-11-27T03:29:33.602Z,4.27
2022-11-27T03:32:01.461Z,4.10
2022-11-27T03:34:29.007Z,4.03
2022-11-27T03:36:55.919Z,4.20
2022-11-27T03:39:24.063Z,4.40
2022-11-27T03:41:53.989Z,4.50
2022-11-27T03:44:29.707Z,4.77
2022-11-27T03:47:21.835Z,4.30
2022-11-27T03:50:09.681Z,4.00
2022-11-27T03:52:43.800Z,3.73
2022-11-27T03:55:31.726Z,4.73
2022-11-27T03:58:03.680Z,3.50
2022-11-27T04:00:34.817Z,4.07
2022-11-27T04:03:03.412Z,4.43
2022-11-27T04:05:30.410Z,3.67
2022-11-27T04:07:57.404Z,4.40
2022-11-27T04:10:24.143Z,4.73
2022-11-27T04:12:50.864Z,4.50
2022-11-27T04:15:17.871Z,4.20
2022-11-27T04:17:44.563Z,4.00
2022-11-27T04:20:14.119Z,4.17
2022-11-27T04:22:41.421Z,4.23
2022-11-27T04:25:08.566Z,4.30
2022-11-27T04:27:35.348Z,4.53
2022-11-27T04:30:02.222Z,3.90
2022-11-27T04:32:28.864Z,4.10
2022-11-27T04:34:55.871Z,4.53
2022-11-27T04:37:22.664Z,4.40
2022-11-27T04:39:49.321Z,4.70
2022-11-27T04:42:16.596Z,4.50
2022-11-27T04:44:43.465Z,4.40
2022-11-27T04:47:10.337Z,4.80
2022-11-27T04:49:37.281Z,4.13
2022-11-27T04:52:04.383Z,5.07
2022-11-27T04:54:31.176Z,4.73
2022-11-27T04:56:57.891Z,5.33
2022-11-27T04:59:24.503Z,4.37
2022-11-27T05:01:51.423Z,5.40
2022-11-27T05:04:18.053Z,4.63
2022-11-27T05:06:45.225Z,5.60
2022-11-27T05:09:12.081Z,5.10
2022-11-27T05:11:39.029Z,4.63
2022-11-27T05:14:22.671Z,5.03
2022-11-27T05:16:54.884Z,4.40
2022-11-27T05:19:23.844Z,4.87
2022-11-27T05:21:51.468Z,4.87
2022-11-27T05:24:20.317Z,5.53
2022-11-27T05:26:48.127Z,4.67
2022-11-27T05:29:16.972Z,4.53
2022-11-27T05:31:44.440Z,5.07
2022-11-27T05:34:11.375Z,5.20
2022-11-27T05:36:39.634Z,4.70
2022-11-27T05:39:07.601Z,4.40
2022-11-27T05:41:35.618Z,4.67
2022-11-27T05:44:03.775Z,4.17
2022-11-27T05:46:30.723Z,4.23
2022-11-27T05:48:57.770Z,4.23
2022-11-27T05:51:24.806Z,4.20
2022-11-27T05:53:51.739Z,4.43
2022-11-27T05:56:19.165Z,4.40
2022-11-27T05:58:47.802Z,4.60
2022-11-27T06:01:16.344Z,4.27
2022-11-27T06:03:43.370Z,4.57
2022-11-27T06:06:13.370Z,5.20
2022-11-27T06:08:40.954Z,5.17
2022-11-27T06:11:16.645Z,4.67
2022-11-27T06:13:44.284Z,4.70
2022-11-27T06:16:22.808Z,5.27
2022-11-27T06:18:54.404Z,5.00
2022-11-27T06:21:22.779Z,5.43
2022-11-27T06:23:49.841Z,5.13
2022-11-27T06:26:22.431Z,5.63
2022-11-27T06:28:50.198Z,5.43
2022-11-27T06:31:20.093Z,5.60
2022-11-27T06:33:48.569Z,5.30
2022-11-27T06:36:15.831Z,5.03
2022-11-27T06:38:43.092Z,4.93
2022-11-27T06:41:12.782Z,4.60
2022-11-27T06:43:40.113Z,4.17
2022-11-27T06:46:10.846Z,4.30
2022-11-27T06:48:37.572Z,4.30
2022-11-27T06:51:07.056Z,4.53
2022-11-27T06:53:36.895Z,4.67
2022-11-27T06:56:05.469Z,4.23
2022-11-27T06:58:32.164Z,5.10
2022-11-27T07:01:05.573Z,4.93
2022-11-27T07:03:32.358Z,5.17
2022-11-27T07:06:05.196Z,5.40
2022-11-27T07:08:32.547Z,5.73
2022-11-27T07:11:18.422Z,6.63
2022-11-27T07:13:46.379Z,6.60
2022-11-27T07:16:14.018Z,6.17
2022-11-27T07:18:46.521Z,5.90
2022-11-27T07:21:13.490Z,5.57
2022-11-27T07:23:40.867Z,5.30
2022-11-27T07:26:13.302Z,5.30
2022-11-27T07:28:40.404Z,4.93
2022-11-27T07:31:07.121Z,5.50
2022-11-27T07:33:34.078Z,5.33
2022-11-27T07:36:10.703Z,6.77
2022-11-27T07:38:37.497Z,7.17
2022-11-27T07:41:05.376Z,7.67
2022-11-27T07:43:33.381Z,7.90
2022-11-27T07:46:07.910Z,8.00
2022-11-27T07:48:34.741Z,7.50
2022-11-27T07:51:01.587Z,8.53
2022-11-27T07:53:28.340Z,10.37
2022-11-27T07:55:58.723Z,10.40
2022-11-27T07:58:25.486Z,8.70
2022-11-27T08:00:52.413Z,9.30
2022-11-27T08:03:19.089Z,9.43
2022-11-27T08:05:45.975Z,8.70
2022-11-27T08:08:12.628Z,8.40
2022-11-27T08:10:40.445Z,7.60
2022-11-27T08:13:07.200Z,7.43
2022-11-27T08:15:34.429Z,7.17
2022-11-27T08:18:01.258Z,8.77
2022-11-27T08:20:28.085Z,9.07
2022-11-27T08:22:59.501Z,9.00
2022-11-27T08:25:29.644Z,8.67
2022-11-27T08:27:56.292Z,9.53
2022-11-27T08:30:25.996Z,9.73
2022-11-27T08:32:52.658Z,9.20
2022-11-27T08:35:19.371Z,9.07
2022-11-27T08:37:46.775Z,9.07
2022-11-27T08:40:13.711Z,8.77
2022-11-27T08:42:40.446Z,8.80
2022-11-27T08:45:08.049Z,8.37
2022-11-27T08:47:34.716Z,8.77
2022-11-27T08:50:01.439Z,8.90
2022-11-27T08:52:28.178Z,9.03
2022-11-27T08:54:57.730Z,9.27
2022-11-27T08:57:25.484Z,8.73
2022-11-27T08:59:52.212Z,9.73
2022-11-27T09:02:18.960Z,9.63
2022-11-27T09:04:45.952Z,10.27
2022-11-27T09:07:15.164Z,11.87
2022-11-27T09:09:43.725Z,11.10
2022-11-27T09:12:10.384Z,11.10
2022-11-27T09:14:37.394Z,11.83
2022-11-27T09:17:04.257Z,10.97
2022-11-27T09:19:31.308Z,11.13
2022-11-27T09:21:58.224Z,9.87
2022-11-27T09:24:24.902Z,9.47
2022-11-27T09:26:51.750Z,8.77
2022-11-27T09:29:20.799Z,8.50
2022-11-27T09:31:47.670Z,7.17
2022-11-27T09:34:14.844Z,8.03
2022-11-27T09:36:41.795Z,7.13
2022-11-27T09:39:08.604Z,6.53
2022-11-27T09:41:39.283Z,6.10
2022-11-27T09:44:33.637Z,6.50
2022-11-27T09:47:10.364Z,6.93
2022-11-27T09:49:43.831Z,6.13
2022-11-27T09:52:22.410Z,6.53
2022-11-27T09:55:05.889Z,6.70
2022-11-27T09:57:38.651Z,6.17
2022-11-27T10:00:13.263Z,6.70
2022-11-27T10:02:43.027Z,8.20
2022-11-27T10:05:22.794Z,8.57
2022-11-27T10:08:08.078Z,6.83
2022-11-27T10:11:01.535Z,5.43
2022-11-27T10:14:03.653Z,5.07
2022-11-27T10:16:51.068Z,5.00
2022-11-27T10:19:46.491Z,3.83
2022-11-27T10:22:27.415Z,3.10
2022-11-27T10:25:19.075Z,2.57
2022-11-27T10:27:57.578Z,2.33
2022-11-27T10:30:25.299Z,2.40
2022-11-27T10:32:56.383Z,3.07
2022-11-27T10:35:29.378Z,3.57
2022-11-27T10:38:17.214Z,3.67
2022-11-27T10:40:53.484Z,3.50
2022-11-27T10:43:25.129Z,2.80
2022-11-27T10:46:10.731Z,2.37
2022-11-27T10:48:37.843Z,2.03
2022-11-27T10:51:21.337Z,2.53
2022-11-27T10:53:52.115Z,2.30
2022-11-27T10:56:56.089Z,2.40
2022-11-27T10:59:33.187Z,2.20
2022-11-27T11:02:03.457Z,1.93
2022-11-27T11:04:48.473Z,1.83
2022-11-27T11:07:28.252Z,2.00
2022-11-27T11:09:56.163Z,2.03
2022-11-27T11:12:24.027Z,2.33
2022-11-27T11:14:53.164Z,2.13
2022-11-27T11:17:34.532Z,2.00
2022-11-27T11:20:12.264Z,2.20
2022-11-27T11:22:45.769Z,2.00
2022-11-27T11:25:18.119Z,2.60
2022-11-27T11:27:46.763Z,2.10
2022-11-27T11:30:26.670Z,1.93
2022-11-27T11:33:01.559Z,1.97
2022-11-27T11:35:34.978Z,1.90
2022-11-27T11:38:04.890Z,2.17
2022-11-27T11:40:34.281Z,1.87
2022-11-27T11:43:03.491Z,2.63
2022-11-27T11:45:33.368Z,2.33
2022-11-27T11:48:20.514Z,2.20
2022-11-27T11:51:01.891Z,2.00
2022-11-27T11:53:45.332Z,3.13
2022-11-27T11:56:29.710Z,4.30
2022-11-27T11:59:31.719Z,3.47
2022-11-27T12:02:34.515Z,2.50
2022-11-27T12:05:14.748Z,2.20
2022-11-27T12:08:05.057Z,2.27
2022-11-27T12:11:05.491Z,2.23
2022-11-27T12:14:04.390Z,2.33
2022-11-27T12:17:11.909Z,1.87
2022-11-27T12:19:52.912Z,2.07
2022-11-27T12:22:57.187Z,2.07
2022-11-27T12:25:38.055Z,1.97
2022-11-27T12:28:07.683Z,1.90
2022-11-27T12:30:51.866Z,2.03
2022-11-27T12:33:38.235Z,1.70
2022-11-27T12:36:41.850Z,1.90
2022-11-27T12:39:18.093Z,1.63
2022-11-27T12:41:56.812Z,2.03
2022-11-27T12:44:32.948Z,1.77
2022-11-27T12:47:03.104Z,2.00
2022-11-27T12:49:34.339Z,2.47
2022-11-27T12:52:21.206Z,2.83
2022-11-27T12:55:12.296Z,2.50
2022-11-27T12:57:39.071Z,2.40
2022-11-27T13:00:14.558Z,2.43
2022-11-27T13:02:44.286Z,2.10
2022-11-27T13:05:20.255Z,2.60
2022-11-27T13:08:11.164Z,2.30
2022-11-27T13:10:51.347Z,2.80
2022-11-27T13:13:24.798Z,2.27
2022-11-27T13:16:09.270Z,2.43
2022-11-27T13:18:46.007Z,2.40
2022-11-27T13:21:20.329Z,2.50
2022-11-27T13:23:47.185Z,2.53
2022-11-27T13:26:24.763Z,2.40
2022-11-27T13:28:58.002Z,2.07
2022-11-27T13:31:29.758Z,2.43
2022-11-27T13:34:04.471Z,2.03
2022-11-27T13:36:36.262Z,2.43
2022-11-27T13:39:03.768Z,2.40
2022-11-27T13:41:34.880Z,2.50
2022-11-27T13:44:02.629Z,2.57
2022-11-27T13:46:32.335Z,2.50
2022-11-27T13:49:05.189Z,2.13
2022-11-27T13:51:38.749Z,2.40
2022-11-27T13:54:15.983Z,2.13
2022-11-27T13:56:43.147Z,2.13
2022-11-27T13:59:25.321Z,2.60
2022-11-27T14:02:05.278Z,2.50
2022-11-27T14:04:34.112Z,3.17
2022-11-27T14:07:06.954Z,2.50
2022-11-27T14:09:38.437Z,2.30
2022-11-27T14:12:36.165Z,2.43
2022-11-27T14:15:09.359Z,2.47
2022-11-27T14:17:41.923Z,2.00
2022-11-27T14:20:17.812Z,1.90
2022-11-27T14:25:38.031Z,1.80
2022-11-27T14:28:16.717Z,1.93
2022-11-27T14:30:52.517Z,2.27
2022-11-27T14:33:27.814Z,2.33
2022-11-27T14:35:57.004Z,1.50
2022-11-27T14:38:25.151Z,1.70
2022-11-27T14:40:54.050Z,1.40
2022-11-27T14:43:23.955Z,1.67
2022-11-27T14:45:53.803Z,1.80
2022-11-27T14:48:26.076Z,1.77
2022-11-27T14:50:55.776Z,1.67
2022-11-27T14:53:26.323Z,2.23
2022-11-27T14:55:56.422Z,1.53
2022-11-27T14:58:29.698Z,1.63
2022-11-27T15:01:02.835Z,1.63
2022-11-27T15:03:30.321Z,1.60
2022-11-27T15:06:02.955Z,1.67
2022-11-27T15:08:34.101Z,2.00
2022-11-27T15:11:03.389Z,1.63
2022-11-27T15:13:33.403Z,2.33
2022-11-27T15:16:04.828Z,1.67
2022-11-27T15:18:37.278Z,1.90
2022-11-27T15:21:11.377Z,2.10
2022-11-27T15:23:43.519Z,1.63
2022-11-27T15:26:16.013Z,1.80
2022-11-27T15:28:51.241Z,1.63
2022-11-27T15:31:34.924Z,2.27
2022-11-27T15:34:03.511Z,1.83
2022-11-27T15:36:47.360Z,1.97
2022-11-27T15:39:19.883Z,1.50
2022-11-27T15:41:57.626Z,1.43
2022-11-27T15:44:25.928Z,1.60
2022-11-27T15:46:54.415Z,1.87
2022-11-27T15:49:22.993Z,1.40
2022-11-27T15:51:50.381Z,2.10
2022-11-27T15:54:17.478Z,1.60
2022-11-27T15:56:44.723Z,1.53
2022-11-27T15:59:11.663Z,1.70
2022-11-27T16:01:38.434Z,1.80
2022-11-27T16:04:05.700Z,2.27
2022-11-27T16:06:32.494Z,2.07
2022-11-27T16:09:01.495Z,1.70
2022-11-27T16:11:30.068Z,1.53
2022-11-27T16:13:57.216Z,1.80
2022-11-27T16:16:24.168Z,2.20
2022-11-27T16:18:51.094Z,2.03
2022-11-27T16:21:18.884Z,1.83
2022-11-27T16:23:45.843Z,2.00
2022-11-27T16:26:14.386Z,2.03
2022-11-27T16:28:41.379Z,2.00
2022-11-27T16:31:12.030Z,2.20
2022-11-27T16:33:39.018Z,2.30
2022-11-27T16:36:08.579Z,2.40
2022-11-27T16:38:35.714Z,2.20
2022-11-27T16:41:08.849Z,2.40
2022-11-27T16:43:38.516Z,1.97
2022-11-27T16:46:11.220Z,2.23
2022-11-27T16:48:40.024Z,2.57
2022-11-27T16:51:11.504Z,2.67
2022-11-27T16:53:41.244Z,2.40
2022-11-27T16:56:09.351Z,2.53
2022-11-27T16:58:39.628Z,2.27
2022-11-27T17:01:08.129Z,2.50
2022-11-27T17:03:35.280Z,2.47
2022-11-27T17:06:07.781Z,2.97
2022-11-27T17:08:34.555Z,3.00
2022-11-27T17:11:13.291Z,2.60
2022-11-27T17:13:40.364Z,2.67
2022-11-27T17:16:11.089Z,2.97
2022-11-27T17:18:38.780Z,2.80
2022-11-27T17:21:10.269Z,2.40
2022-11-27T17:23:38.152Z,2.50
2022-11-27T17:26:09.428Z,2.17
2022-11-27T17:28:37.058Z,1.93
2022-11-27T17:31:10.209Z,2.70
2022-11-27T17:33:36.989Z,2.10
2022-11-27T17:36:04.278Z,2.10
2022-11-27T17:38:31.525Z,2.30
2022-11-27T17:41:03.135Z,2.30
2022-11-27T17:43:30.479Z,2.13
2022-11-27T17:45:58.294Z,2.27
2022-11-27T17:48:25.762Z,2.30
2022-11-27T17:50:53.164Z,1.80
2022-11-27T17:53:20.380Z,2.30
2022-11-27T17:55:47.310Z,2.03
2022-11-27T17:58:14.269Z,2.27
2022-11-27T18:00:41.663Z,2.33
2022-11-27T18:03:08.358Z,2.30
2022-11-27T18:05:38.363Z,2.10
2022-11-27T18:08:05.833Z,2.50
2022-11-27T18:10:34.607Z,2.77
2022-11-27T18:13:02.644Z,2.47
2022-11-27T18:15:29.632Z,2.70
2022-11-27T18:17:56.522Z,3.23
2022-11-27T18:20:23.136Z,3.67
2022-11-27T18:22:49.987Z,3.07
2022-11-27T18:25:16.749Z,3.17
2022-11-27T18:27:43.526Z,3.10
2022-11-27T18:30:10.961Z,3.23
2022-11-27T18:32:38.531Z,3.27
2022-11-27T18:35:06.343Z,3.13
2022-11-27T18:37:35.603Z,3.33
2022-11-27T18:40:02.479Z,3.03
2022-11-27T18:42:30.618Z,3.53
2022-11-27T18:44:57.424Z,4.47
2022-11-27T18:47:24.450Z,4.77
2022-11-27T18:49:51.452Z,5.27
2022-11-27T18:52:18.409Z,4.47
2022-11-27T18:54:45.872Z,3.83
2022-11-27T18:57:13.207Z,3.83
2022-11-27T18:59:43.348Z,3.73
2022-11-27T19:02:11.233Z,4.20
2022-11-27T19:04:38.337Z,4.37
2022-11-27T19:07:05.923Z,4.43
2022-11-27T19:09:33.744Z,4.23
2022-11-27T19:12:00.400Z,4.73
2022-11-27T19:14:27.695Z,4.87
2022-11-27T19:16:54.700Z,4.47
2022-11-27T19:22:09.845Z,3.60
2022-11-27T19:24:37.865Z,4.30
2022-11-27T19:27:04.670Z,4.10
2022-11-27T19:29:31.370Z,4.00
2022-11-27T19:31:58.960Z,4.23
2022-11-27T19:34:26.007Z,4.17
2022-11-27T19:36:53.267Z,4.00
2022-11-27T19:39:20.139Z,4.00
2022-11-27T19:41:48.610Z,3.43
2022-11-27T19:44:17.480Z,3.43
2022-11-27T19:46:46.314Z,3.30
2022-11-27T19:49:16.861Z,2.73
2022-11-27T19:51:44.167Z,3.37
2022-11-27T19:54:13.562Z,3.67
2022-11-27T19:56:42.201Z,3.20
2022-11-27T19:59:10.520Z,2.97
2022-11-27T20:01:40.506Z,3.00
2022-11-27T20:04:09.640Z,2.87
2022-11-27T20:06:36.540Z,2.63
2022-11-27T20:09:05.247Z,3.07
2022-11-27T20:11:35.089Z,2.97
2022-11-27T20:14:06.036Z,2.60
2022-11-27T20:16:34.524Z,2.33
2022-11-27T20:19:05.250Z,2.37
2022-11-27T20:21:33.962Z,2.57
2022-11-27T20:24:01.982Z,3.00
2022-11-27T20:26:30.607Z,2.90
2022-11-27T20:28:59.093Z,3.20
2022-11-27T20:31:32.042Z,2.97
2022-11-27T20:34:01.858Z,3.10
2022-11-27T20:36:31.285Z,3.23
2022-11-27T20:38:59.964Z,3.30
2022-11-27T20:41:28.123Z,3.17
2022-11-27T20:44:01.013Z,3.30
2022-11-27T20:46:29.292Z,3.33
2022-11-27T20:48:56.960Z,3.47
2022-11-27T20:51:31.255Z,3.23
2022-11-27T20:53:59.835Z,3.13
2022-11-27T20:56:27.843Z,3.27
2022-11-27T20:58:56.109Z,2.93
2022-11-27T21:01:32.225Z,3.33
2022-11-27T21:04:04.441Z,3.23
2022-11-27T21:06:32.498Z,2.97
2022-11-27T21:09:01.743Z,3.40
2022-11-27T21:11:31.655Z,3.07
2022-11-27T21:14:04.980Z,3.37
2022-11-27T21:16:34.523Z,3.60
2022-11-27T21:19:06.684Z,3.17
2022-11-27T21:21:34.192Z,3.30
2022-11-27T21:24:01.067Z,3.63
2022-11-27T21:26:28.830Z,3.37
2022-11-27T21:28:56.393Z,3.40
2022-11-27T21:31:25.739Z,3.00
2022-11-27T21:33:57.437Z,3.20
2022-11-27T21:36:27.187Z,3.30
2022-11-27T21:38:54.830Z,3.83
2022-11-27T21:41:22.480Z,3.03
2022-11-27T21:43:54.227Z,3.33
2022-11-27T21:46:24.890Z,3.70
2022-11-27T21:48:53.602Z,3.40
2022-11-27T21:51:21.600Z,3.70
2022-11-27T21:53:52.578Z,3.53
2022-11-27T21:56:22.730Z,4.50
2022-11-27T21:58:50.151Z,7.90
2022-11-27T22:01:20.486Z,14.40
2022-11-27T22:03:50.146Z,13.60
2022-11-27T22:06:18.559Z,10.20
2022-11-27T22:08:48.084Z,9.77
2022-11-27T22:11:20.146Z,7.43
2022-11-27T22:13:49.224Z,6.97
2022-11-27T22:16:21.168Z,6.30
2022-11-27T22:18:48.668Z,5.33
2022-11-27T22:21:17.139Z,4.30
2022-11-27T22:23:44.217Z,4.13
2022-11-27T22:26:14.395Z,5.00
2022-11-27T22:28:42.007Z,4.07
2022-11-27T22:31:14.555Z,3.70
2022-11-27T22:33:42.128Z,3.93
2022-11-27T22:36:17.791Z,4.93
2022-11-27T22:38:45.987Z,4.20
2022-11-27T22:41:14.936Z,4.40
2022-11-27T22:43:42.639Z,4.37
2022-11-27T22:46:12.561Z,4.30
2022-11-27T22:48:39.599Z,4.70
2022-11-27T22:51:08.467Z,4.03
2022-11-27T22:53:36.063Z,3.70
2022-11-27T22:56:05.532Z,3.90
2022-11-27T22:58:36.061Z,3.23
2022-11-27T23:01:06.218Z,4.00
2022-11-27T23:03:33.707Z,3.77
2022-11-27T23:06:00.858Z,3.50
2022-11-27T23:08:27.868Z,3.33
2022-11-27T23:10:54.624Z,3.50
2022-11-27T23:13:21.595Z,3.77
2022-11-27T23:15:48.314Z,3.43
2022-11-27T23:18:15.231Z,3.40
2022-11-27T23:20:43.201Z,3.10
2022-11-27T23:23:11.375Z,4.80
2022-11-27T23:25:39.234Z,3.27
2022-11-27T23:28:06.688Z,3.00
2022-11-27T23:30:34.764Z,3.03
2022-11-27T23:33:01.531Z,3.00
2022-11-27T23:35:28.361Z,3.23
2022-11-27T23:37:55.129Z,3.50
2022-11-27T23:40:21.925Z,3.17
2022-11-27T23:42:48.889Z,3.03
2022-11-27T23:45:15.555Z,2.70
2022-11-27T23:47:42.554Z,3.10
2022-11-27T23:50:09.470Z,3.17
2022-11-27T23:52:36.229Z,3.20
2022-11-27T23:55:03.219Z,3.10
2022-11-27T23:57:29.915Z,2.97
2022-11-27T23:59:57.236Z,3.10
